• Join FlightAware (Why Join?)
  • Login
  • US Flag 
04:29PM EDT


 

Airport Tracker/Info


-or-


 

Live Flight TrackerFlight Track Log ✈ N7339F ✈ 14-Sep-2013 ✈ KVHP - I22

Flight Track Log - Related Links

Times and Time Zones

All times are in EDT time to prevent confusion due to time zone crossing. See the N7339F flight status page for this flight to view local times or setup timezone preferences in your user account.

Time Position Orientation Groundspeed Altitude Reporting Facility
EDT Latitude Longitude Course Direction KTS MPH feet Rate Location/Type
07:54PM 40.0167 -85.6833 73° East 113 130 3,500  Level Indianapolis TRACON
07:55PM 40.0167 -85.6500 90° East 114 131 3,500  Level Indianapolis TRACON
07:56PM 40.0333 -85.6167 57° Northeast 116 133 3,500  Level Indianapolis TRACON
07:57PM 40.0333 -85.5667 90° East 115 132 3,500  Level Indianapolis TRACON
07:58PM 40.0500 -85.5333 57° Northeast 114 131 3,500  Level Indianapolis TRACON
07:59PM 39.9302 -85.8548 73° East  Level FlightAware Approximate
07:59PM 40.0500 -85.5000 90° East 116 133 3,500  Level Indianapolis TRACON
08:00PM 40.0667 -85.4500 66° East 113 130 3,500  Level Indianapolis TRACON
08:01PM 40.0667 -85.4167 90° East 115 132 3,500  Level Indianapolis TRACON
08:01PM 40.0803 -85.3850 61° Northeast 115 132 3,500  Level Indianapolis Center
08:02PM 40.0856 -85.3561 77° East 115 132 3,500  Level Indianapolis Center
08:03PM 40.0925 -85.3161 77° East 114 131 3,500  Level Indianapolis Center
08:04PM 40.1011 -85.2767 74° East 114 131 3,500  Level Indianapolis Center
08:05PM 40.1086 -85.2314 78° East 113 130 3,500  Level Indianapolis Center
08:06PM 40.1175 -85.1892 75° East 115 132 3,500  Level Indianapolis Center
08:07PM 40.1261 -85.1497 74° East 114 131 3,500 -240 Level Indianapolis Center
08:08PM 40.1333 -85.1072 77° East 121 139 3,100  Descending Indianapolis Center
08:10PM 40.1404 -85.0049 72° East  Level FlightAware Approximate
08:17PM 40.1677 -84.9294 66° East  Level Estimated
08:18PM 40.1677 -84.9294 66° East  Level Estimated
08:19PM 40.1677 -84.9294 66° East  Level Estimated
08:20PM 40.1677 -84.9294 66° East  Level Estimated
08:21PM 40.1677 -84.9294 66° East  Level Estimated
08:22PM 40.1677 -84.9294 66° East  Level Estimated
08:23PM 40.1677 -84.9294 66° East  Level Estimated
08:24PM 40.1677 -84.9294 66° East  Level Estimated
08:25PM 40.1677 -84.9294 66° East  Level Estimated
08:26PM 40.1677 -84.9294 66° East  Level Estimated
08:27PM 40.1677 -84.9294 66° East  Level Estimated
08:28PM 40.1677 -84.9294 66° East  Level Estimated
08:29PM 40.1677 -84.9294 66° East  Level Estimated
09:56PM 40.1167 -85.1333 66° East 97 112 4,000  Level Indianapolis TRACON
09:57PM 40.1167 -85.1500 270° West 101 116 4,300 420 Climbing Indianapolis TRACON
09:58PM 40.1167 -85.1833 270° West 95 109 4,700 60 Climbing Indianapolis TRACON
09:59PM 40.1000 -85.2167 237° Southwest 117 135 4,500 -120 Descending Indianapolis TRACON
09:59PM 40.1000 -85.2667 270° West 120 138 4,500  Level Indianapolis TRACON
10:00PM 40.0833 -85.3000 237° Southwest 108 124 4,500  Level Indianapolis TRACON
10:01PM 40.0833 -85.3333 270° West 111 128 4,500  Level Indianapolis TRACON
10:02PM 40.0667 -85.3667 237° Southwest 111 128 4,500  Level Indianapolis TRACON
10:03PM 40.0667 -85.4167 270° West 111 128 4,500  Level Indianapolis TRACON
10:04PM 40.0667 -85.4500 270° West 111 128 4,500  Level Indianapolis TRACON
10:05PM 40.0500 -85.4833 237° Southwest 110 127 4,500  Level Indianapolis TRACON
10:07PM 40.0500 -85.5333 270° West 112 129 4,500  Level Indianapolis TRACON
10:08PM 40.0333 -85.5667 237° Southwest 110 127 4,500  Level Indianapolis TRACON
10:08PM 40.0333 -85.6000 270° West 110 127 4,500  Level Indianapolis TRACON
10:09PM 40.0167 -85.6500 246° West 110 127 4,500 -60 Level Indianapolis TRACON
10:10PM 40.0167 -85.6833 270° West 111 128 4,400 -300 Descending Indianapolis TRACON
10:11PM 40.0000 -85.7333 246° West 123 142 4,000 -420 Descending Indianapolis TRACON
10:12PM 40.0000 -85.7667 270° West 130 150 3,600 -540 Descending Indianapolis TRACON
10:13PM 39.9833 -85.8167 247° West 126 145 3,000 -540 Descending Indianapolis TRACON
10:14PM 39.9667 -85.8500 237° Southwest 123 142 2,600 -420 Descending Indianapolis TRACON